sensor_id;sensor_type;location;lat;lon;timestamp;pressure;altitude;pressure_sealevel;temperature;humidity
72262;BME280;60173;52.112;8.648;2022-12-05T00:00:54;100771.78;;;0.64;98.39
72262;BME280;60173;52.112;8.648;2022-12-05T00:03:21;100785.59;;;0.61;98.68
72262;BME280;60173;52.112;8.648;2022-12-05T00:05:48;100779.34;;;0.49;99.18
72262;BME280;60173;52.112;8.648;2022-12-05T00:08:15;100782.47;;;0.64;99.33
72262;BME280;60173;52.112;8.648;2022-12-05T00:10:41;100782.53;;;0.76;98.83
72262;BME280;60173;52.112;8.648;2022-12-05T00:13:08;100783.00;;;0.73;98.75
72262;BME280;60173;52.112;8.648;2022-12-05T00:15:39;100789.91;;;0.62;99.03
72262;BME280;60173;52.112;8.648;2022-12-05T00:18:06;100791.69;;;0.68;99.04
72262;BME280;60173;52.112;8.648;2022-12-05T00:20:32;100789.38;;;0.72;99.03
72262;BME280;60173;52.112;8.648;2022-12-05T00:22:59;100798.75;;;0.93;98.60
72262;BME280;60173;52.112;8.648;2022-12-05T00:25:25;100792.53;;;0.99;98.38
72262;BME280;60173;52.112;8.648;2022-12-05T00:27:52;100784.22;;;0.88;98.08
72262;BME280;60173;52.112;8.648;2022-12-05T00:30:18;100786.69;;;0.72;98.23
72262;BME280;60173;52.112;8.648;2022-12-05T00:32:44;100784.09;;;0.65;98.73
72262;BME280;60173;52.112;8.648;2022-12-05T00:35:11;100784.25;;;0.70;99.06
72262;BME280;60173;52.112;8.648;2022-12-05T00:37:37;100786.88;;;0.88;99.02
72262;BME280;60173;52.112;8.648;2022-12-05T00:40:04;100790.84;;;0.86;98.30
72262;BME280;60173;52.112;8.648;2022-12-05T00:42:31;100785.38;;;0.93;98.31
72262;BME280;60173;52.112;8.648;2022-12-05T00:44:57;100787.88;;;0.76;97.95
72262;BME280;60173;52.112;8.648;2022-12-05T00:47:23;100789.41;;;1.02;98.02
72262;BME280;60173;52.112;8.648;2022-12-05T00:49:50;100788.56;;;0.71;98.26
72262;BME280;60173;52.112;8.648;2022-12-05T00:52:16;100782.03;;;0.67;98.69
72262;BME280;60173;52.112;8.648;2022-12-05T00:54:42;100782.47;;;0.64;98.92
72262;BME280;60173;52.112;8.648;2022-12-05T00:57:09;100779.19;;;0.80;98.73
72262;BME280;60173;52.112;8.648;2022-12-05T00:59:35;100775.78;;;0.73;99.02
72262;BME280;60173;52.112;8.648;2022-12-05T01:02:01;100775.50;;;0.63;99.33
72262;BME280;60173;52.112;8.648;2022-12-05T01:04:28;100772.25;;;0.61;99.53
72262;BME280;60173;52.112;8.648;2022-12-05T01:06:55;100773.41;;;0.65;99.70
72262;BME280;60173;52.112;8.648;2022-12-05T01:09:22;100762.13;;;0.63;99.57
72262;BME280;60173;52.112;8.648;2022-12-05T01:11:49;100762.72;;;0.65;99.61
72262;BME280;60173;52.112;8.648;2022-12-05T01:14:18;100762.63;;;0.72;99.72
72262;BME280;60173;52.112;8.648;2022-12-05T01:16:46;100764.19;;;0.79;99.55
72262;BME280;60173;52.112;8.648;2022-12-05T01:19:16;100756.03;;;0.74;99.34
72262;BME280;60173;52.112;8.648;2022-12-05T01:21:43;100763.59;;;0.77;98.71
72262;BME280;60173;52.112;8.648;2022-12-05T01:24:10;100763.97;;;0.62;99.36
72262;BME280;60173;52.112;8.648;2022-12-05T01:26:37;100767.06;;;0.78;99.56
72262;BME280;60173;52.112;8.648;2022-12-05T01:29:05;100777.94;;;0.64;99.31
72262;BME280;60173;52.112;8.648;2022-12-05T01:31:34;100780.97;;;0.68;99.48
72262;BME280;60173;52.112;8.648;2022-12-05T01:34:03;100767.41;;;0.70;99.26
72262;BME280;60173;52.112;8.648;2022-12-05T01:36:30;100775.59;;;0.86;99.18
72262;BME280;60173;52.112;8.648;2022-12-05T01:38:57;100771.00;;;0.94;98.34
72262;BME280;60173;52.112;8.648;2022-12-05T01:41:45;100771.91;;;0.69;98.78
72262;BME280;60173;52.112;8.648;2022-12-05T01:46:43;100774.78;;;0.86;99.24
72262;BME280;60173;52.112;8.648;2022-12-05T01:49:18;100778.59;;;0.78;98.76
72262;BME280;60173;52.112;8.648;2022-12-05T01:51:54;100775.53;;;0.93;98.66
72262;BME280;60173;52.112;8.648;2022-12-05T01:54:21;100769.78;;;0.89;98.60
72262;BME280;60173;52.112;8.648;2022-12-05T01:57:00;100775.03;;;0.84;98.39
72262;BME280;60173;52.112;8.648;2022-12-05T01:59:30;100765.81;;;0.80;98.70
72262;BME280;60173;52.112;8.648;2022-12-05T02:01:58;100772.41;;;0.78;99.04
72262;BME280;60173;52.112;8.648;2022-12-05T02:04:25;100774.88;;;0.79;98.95
72262;BME280;60173;52.112;8.648;2022-12-05T02:06:51;100776.47;;;0.99;99.03
72262;BME280;60173;52.112;8.648;2022-12-05T02:09:17;100777.81;;;1.20;98.22
72262;BME280;60173;52.112;8.648;2022-12-05T02:11:51;100783.72;;;1.52;95.87
72262;BME280;60173;52.112;8.648;2022-12-05T02:14:31;100781.78;;;1.17;96.21
72262;BME280;60173;52.112;8.648;2022-12-05T02:17:23;100791.34;;;0.95;96.81
72262;BME280;60173;52.112;8.648;2022-12-05T02:20:21;100779.00;;;0.94;97.51
72262;BME280;60173;52.112;8.648;2022-12-05T02:31:59;100778.16;;;0.81;98.48
72262;BME280;60173;52.112;8.648;2022-12-05T02:34:59;100775.44;;;1.00;97.72
72262;BME280;60173;52.112;8.648;2022-12-05T02:37:35;100772.66;;;1.06;97.43
72262;BME280;60173;52.112;8.648;2022-12-05T02:42:56;100778.81;;;1.07;97.07
72262;BME280;60173;52.112;8.648;2022-12-05T02:45:26;100773.53;;;0.88;97.70
72262;BME280;60173;52.112;8.648;2022-12-05T02:47:54;100772.47;;;0.89;97.96
72262;BME280;60173;52.112;8.648;2022-12-05T02:50:24;100775.53;;;0.93;97.74
72262;BME280;60173;52.112;8.648;2022-12-05T02:52:55;100778.09;;;1.00;97.85
72262;BME280;60173;52.112;8.648;2022-12-05T02:55:26;100770.84;;;1.19;97.18
72262;BME280;60173;52.112;8.648;2022-12-05T02:57:57;100787.59;;;1.14;97.00
72262;BME280;60173;52.112;8.648;2022-12-05T03:00:25;100783.28;;;1.13;96.42
72262;BME280;60173;52.112;8.648;2022-12-05T03:02:55;100782.69;;;1.11;96.80
72262;BME280;60173;52.112;8.648;2022-12-05T03:05:38;100775.06;;;1.38;96.22
72262;BME280;60173;52.112;8.648;2022-12-05T03:08:10;100782.59;;;1.18;95.87
72262;BME280;60173;52.112;8.648;2022-12-05T03:10:41;100786.41;;;1.10;96.52
72262;BME280;60173;52.112;8.648;2022-12-05T03:13:17;100784.28;;;1.42;96.24
72262;BME280;60173;52.112;8.648;2022-12-05T03:15:48;100784.19;;;1.49;94.51
72262;BME280;60173;52.112;8.648;2022-12-05T03:18:23;100781.66;;;1.54;94.44
72262;BME280;60173;52.112;8.648;2022-12-05T03:21:02;100780.19;;;1.28;95.00
72262;BME280;60173;52.112;8.648;2022-12-05T03:23:33;100778.56;;;1.39;95.43
72262;BME280;60173;52.112;8.648;2022-12-05T03:29:13;100781.66;;;1.24;96.21
72262;BME280;60173;52.112;8.648;2022-12-05T03:32:07;100782.09;;;1.51;95.15
72262;BME280;60173;52.112;8.648;2022-12-05T03:40:12;100782.34;;;1.07;96.06
72262;BME280;60173;52.112;8.648;2022-12-05T03:42:49;100779.63;;;0.96;97.14
72262;BME280;60173;52.112;8.648;2022-12-05T03:45:25;100782.19;;;1.02;97.63
72262;BME280;60173;52.112;8.648;2022-12-05T03:48:09;100778.47;;;1.45;96.33
72262;BME280;60173;52.112;8.648;2022-12-05T03:50:40;100777.59;;;1.21;96.02
72262;BME280;60173;52.112;8.648;2022-12-05T03:53:21;100775.50;;;1.23;96.53
72262;BME280;60173;52.112;8.648;2022-12-05T03:55:56;100782.69;;;1.11;96.96
72262;BME280;60173;52.112;8.648;2022-12-05T03:58:30;100774.38;;;1.01;97.57
72262;BME280;60173;52.112;8.648;2022-12-05T04:00:59;100775.50;;;1.23;97.03
72262;BME280;60173;52.112;8.648;2022-12-05T04:03:40;100769.91;;;1.13;96.31
72262;BME280;60173;52.112;8.648;2022-12-05T04:06:17;100767.09;;;1.08;97.11
72262;BME280;60173;52.112;8.648;2022-12-05T04:08:48;100771.34;;;1.27;96.80
72262;BME280;60173;52.112;8.648;2022-12-05T04:11:20;100769.44;;;1.16;96.08
72262;BME280;60173;52.112;8.648;2022-12-05T04:13:52;100778.69;;;1.02;97.03
72262;BME280;60173;52.112;8.648;2022-12-05T04:16:23;100782.53;;;1.06;97.54
72262;BME280;60173;52.112;8.648;2022-12-05T04:18:57;100768.31;;;1.35;96.23
72262;BME280;60173;52.112;8.648;2022-12-05T04:21:31;100770.84;;;1.19;97.00
72262;BME280;60173;52.112;8.648;2022-12-05T04:23:58;100770.38;;;1.10;97.02
72262;BME280;60173;52.112;8.648;2022-12-05T04:26:29;100774.63;;;1.53;96.23
72262;BME280;60173;52.112;8.648;2022-12-05T04:29:04;100775.72;;;1.10;96.78
72262;BME280;60173;52.112;8.648;2022-12-05T04:31:36;100777.50;;;1.28;97.49
72262;BME280;60173;52.112;8.648;2022-12-05T04:34:07;100778.56;;;1.39;96.40
72262;BME280;60173;52.112;8.648;2022-12-05T04:36:42;100770.72;;;1.13;97.43
72262;BME280;60173;52.112;8.648;2022-12-05T04:39:30;100779.16;;;0.99;98.21
72262;BME280;60173;52.112;8.648;2022-12-05T04:42:03;100769.56;;;1.21;97.78
72262;BME280;60173;52.112;8.648;2022-12-05T04:44:33;100777.28;;;0.99;98.25
72262;BME280;60173;52.112;8.648;2022-12-05T04:47:03;100774.63;;;0.99;98.67
72262;BME280;60173;52.112;8.648;2022-12-05T04:49:32;100772.69;;;1.18;98.63
72262;BME280;60173;52.112;8.648;2022-12-05T04:52:03;100767.09;;;1.08;98.00
72262;BME280;60173;52.112;8.648;2022-12-05T04:54:35;100772.78;;;1.11;98.45
72262;BME280;60173;52.112;8.648;2022-12-05T04:57:25;100773.88;;;0.92;98.79
72262;BME280;60173;52.112;8.648;2022-12-05T04:59:52;100781.22;;;0.97;99.02
72262;BME280;60173;52.112;8.648;2022-12-05T05:02:25;100774.63;;;0.99;99.11
72262;BME280;60173;52.112;8.648;2022-12-05T05:04:53;100772.63;;;0.95;99.06
72262;BME280;60173;52.112;8.648;2022-12-05T05:07:22;100774.53;;;1.06;99.01
72262;BME280;60173;52.112;8.648;2022-12-05T05:09:49;100776.59;;;1.04;99.07
72262;BME280;60173;52.112;8.648;2022-12-05T05:12:15;100772.31;;;1.03;98.92
72262;BME280;60173;52.112;8.648;2022-12-05T05:14:44;100780.47;;;1.08;98.97
72262;BME280;60173;52.112;8.648;2022-12-05T05:17:11;100774.97;;;1.03;98.79
72262;BME280;60173;52.112;8.648;2022-12-05T05:19:37;100770.78;;;1.07;98.28
72262;BME280;60173;52.112;8.648;2022-12-05T05:22:03;100771.69;;;1.01;98.90
72262;BME280;60173;52.112;8.648;2022-12-05T05:24:30;100769.53;;;1.09;98.35
72262;BME280;60173;52.112;8.648;2022-12-05T05:26:56;100763.81;;;1.06;98.39
72262;BME280;60173;52.112;8.648;2022-12-05T05:29:23;100771.25;;;1.04;98.78
72262;BME280;60173;52.112;8.648;2022-12-05T05:31:49;100773.53;;;1.19;98.60
72262;BME280;60173;52.112;8.648;2022-12-05T05:34:16;100781.22;;;0.97;98.90
72262;BME280;60173;52.112;8.648;2022-12-05T05:36:42;100779.31;;;1.16;98.43
72262;BME280;60173;52.112;8.648;2022-12-05T05:39:11;100779.69;;;1.19;98.26
72262;BME280;60173;52.112;8.648;2022-12-05T05:41:38;100784.06;;;1.02;98.28
72262;BME280;60173;52.112;8.648;2022-12-05T05:44:05;100782.84;;;0.98;98.78
72262;BME280;60173;52.112;8.648;2022-12-05T05:46:33;100780.78;;;1.00;99.02
72262;BME280;60173;52.112;8.648;2022-12-05T05:49:00;100780.03;;;0.93;99.13
72262;BME280;60173;52.112;8.648;2022-12-05T05:51:26;100783.94;;;1.08;98.82
72262;BME280;60173;52.112;8.648;2022-12-05T05:53:53;100785.78;;;0.96;98.99
72262;BME280;60173;52.112;8.648;2022-12-05T05:56:20;100785.97;;;0.95;99.13
72262;BME280;60173;52.112;8.648;2022-12-05T05:58:53;100792.75;;;0.97;99.31
72262;BME280;60173;52.112;8.648;2022-12-05T06:01:20;100794.59;;;0.97;99.22
72262;BME280;60173;52.112;8.648;2022-12-05T06:03:47;100786.69;;;0.90;99.30
72262;BME280;60173;52.112;8.648;2022-12-05T06:06:14;100795.75;;;1.19;98.97
72262;BME280;60173;52.112;8.648;2022-12-05T06:08:42;100785.56;;;1.40;97.72
72262;BME280;60173;52.112;8.648;2022-12-05T06:11:20;100796.72;;;1.06;98.02
72262;BME280;60173;52.112;8.648;2022-12-05T06:13:53;100795.47;;;1.09;98.15
72262;BME280;60173;52.112;8.648;2022-12-05T06:16:19;100796.22;;;0.98;98.47
72262;BME280;60173;52.112;8.648;2022-12-05T06:18:47;100797.31;;;1.08;98.93
72262;BME280;60173;52.112;8.648;2022-12-05T06:21:13;100801.38;;;1.41;98.24
72262;BME280;60173;52.112;8.648;2022-12-05T06:23:42;100802.06;;;1.06;98.01
72262;BME280;60173;52.112;8.648;2022-12-05T06:26:14;100811.19;;;1.17;98.50
72262;BME280;60173;52.112;8.648;2022-12-05T06:28:41;100807.22;;;1.08;98.32
72262;BME280;60173;52.112;8.648;2022-12-05T06:31:10;100805.72;;;1.12;98.53
72262;BME280;60173;52.112;8.648;2022-12-05T06:33:37;100807.38;;;0.95;98.98
72262;BME280;60173;52.112;8.648;2022-12-05T06:36:06;100797.63;;;1.00;99.05
72262;BME280;60173;52.112;8.648;2022-12-05T06:38:33;100810.16;;;1.18;98.79
72262;BME280;60173;52.112;8.648;2022-12-05T06:41:09;100803.34;;;1.04;98.39
72262;BME280;60173;52.112;8.648;2022-12-05T06:43:35;100800.59;;;1.10;98.85
72262;BME280;60173;52.112;8.648;2022-12-05T06:46:09;100804.91;;;1.11;98.85
72262;BME280;60173;52.112;8.648;2022-12-05T06:48:36;100810.69;;;1.08;97.92
72262;BME280;60173;52.112;8.648;2022-12-05T06:51:03;100808.25;;;1.07;98.29
72262;BME280;60173;52.112;8.648;2022-12-05T06:53:29;100816.34;;;1.19;97.95
72262;BME280;60173;52.112;8.648;2022-12-05T06:55:58;100814.38;;;0.96;98.60
72262;BME280;60173;52.112;8.648;2022-12-05T06:58:25;100823.94;;;1.03;98.86
72262;BME280;60173;52.112;8.648;2022-12-05T07:00:52;100820.84;;;1.18;98.87
72262;BME280;60173;52.112;8.648;2022-12-05T07:03:18;100822.41;;;0.96;99.00
72262;BME280;60173;52.112;8.648;2022-12-05T07:05:45;100816.88;;;1.09;99.10
72262;BME280;60173;52.112;8.648;2022-12-05T07:08:11;100834.47;;;0.98;99.29
72262;BME280;60173;52.112;8.648;2022-12-05T07:10:37;100821.50;;;0.83;99.69
72262;BME280;60173;52.112;8.648;2022-12-05T07:13:04;100820.28;;;1.16;99.31
72262;BME280;60173;52.112;8.648;2022-12-05T07:15:30;100828.97;;;1.42;98.07
72262;BME280;60173;52.112;8.648;2022-12-05T07:17:56;100832.47;;;1.12;97.88
72262;BME280;60173;52.112;8.648;2022-12-05T07:20:23;100830.09;;;1.04;98.60
72262;BME280;60173;52.112;8.648;2022-12-05T07:22:49;100834.72;;;0.97;98.60
72262;BME280;60173;52.112;8.648;2022-12-05T07:25:15;100831.38;;;1.31;97.76
72262;BME280;60173;52.112;8.648;2022-12-05T07:27:42;100832.75;;;1.22;97.45
72262;BME280;60173;52.112;8.648;2022-12-05T07:30:08;100828.75;;;1.13;97.18
72262;BME280;60173;52.112;8.648;2022-12-05T07:32:35;100832.41;;;1.19;96.98
72262;BME280;60173;52.112;8.648;2022-12-05T07:35:01;100838.50;;;1.38;95.76
72262;BME280;60173;52.112;8.648;2022-12-05T07:37:28;100838.25;;;1.09;95.42
72262;BME280;60173;52.112;8.648;2022-12-05T07:39:54;100843.63;;;1.09;96.11
72262;BME280;60173;52.112;8.648;2022-12-05T07:42:21;100837.41;;;0.60;97.24
72262;BME280;60173;52.112;8.648;2022-12-05T07:44:47;100836.34;;;0.98;97.12
72262;BME280;60173;52.112;8.648;2022-12-05T07:47:14;100834.06;;;0.83;96.77
72262;BME280;60173;52.112;8.648;2022-12-05T07:49:40;100839.94;;;0.55;97.96
72262;BME280;60173;52.112;8.648;2022-12-05T07:52:07;100839.06;;;0.61;97.91
72262;BME280;60173;52.112;8.648;2022-12-05T07:54:33;100837.41;;;0.41;98.26
72262;BME280;60173;52.112;8.648;2022-12-05T07:56:59;100840.00;;;0.66;98.51
72262;BME280;60173;52.112;8.648;2022-12-05T07:59:26;100849.28;;;0.82;97.89
72262;BME280;60173;52.112;8.648;2022-12-05T08:01:52;100840.88;;;0.97;96.91
72262;BME280;60173;52.112;8.648;2022-12-05T08:04:18;100846.53;;;1.07;96.09
72262;BME280;60173;52.112;8.648;2022-12-05T08:06:45;100839.13;;;1.21;94.62
72262;BME280;60173;52.112;8.648;2022-12-05T08:09:11;100843.38;;;0.43;96.65
72262;BME280;60173;52.112;8.648;2022-12-05T08:11:38;100850.63;;;0.36;98.14
72262;BME280;60173;52.112;8.648;2022-12-05T08:14:06;100850.19;;;0.58;97.38
72262;BME280;60173;52.112;8.648;2022-12-05T08:16:33;100853.69;;;0.58;96.71
72262;BME280;60173;52.112;8.648;2022-12-05T08:19:10;100842.19;;;0.76;96.38
72262;BME280;60173;52.112;8.648;2022-12-05T08:21:37;100849.97;;;0.96;94.76
72262;BME280;60173;52.112;8.648;2022-12-05T08:24:05;100847.34;;;0.89;94.51
72262;BME280;60173;52.112;8.648;2022-12-05T08:26:34;100843.81;;;0.96;94.07
72262;BME280;60173;52.112;8.648;2022-12-05T08:29:04;100849.16;;;0.96;94.24
72262;BME280;60173;52.112;8.648;2022-12-05T08:31:33;100851.03;;;1.07;93.35
72262;BME280;60173;52.112;8.648;2022-12-05T08:34:00;100852.34;;;1.04;93.27
72262;BME280;60173;52.112;8.648;2022-12-05T08:36:28;100861.47;;;0.97;93.47
72262;BME280;60173;52.112;8.648;2022-12-05T08:38:55;100863.44;;;0.46;94.73
72262;BME280;60173;52.112;8.648;2022-12-05T08:41:22;100860.78;;;0.46;95.90
72262;BME280;60173;52.112;8.648;2022-12-05T08:43:49;100860.97;;;0.70;96.21
72262;BME280;60173;52.112;8.648;2022-12-05T08:46:15;100861.47;;;0.60;95.73
72262;BME280;60173;52.112;8.648;2022-12-05T08:48:41;100862.94;;;0.93;95.03
72262;BME280;60173;52.112;8.648;2022-12-05T08:51:09;100863.09;;;0.98;94.07
72262;BME280;60173;52.112;8.648;2022-12-05T08:53:37;100868.22;;;0.81;94.47
72262;BME280;60173;52.112;8.648;2022-12-05T08:56:10;100861.22;;;0.98;94.25
72262;BME280;60173;52.112;8.648;2022-12-05T08:58:37;100872.47;;;0.88;93.89
72262;BME280;60173;52.112;8.648;2022-12-05T09:01:04;100866.72;;;1.03;93.36
72262;BME280;60173;52.112;8.648;2022-12-05T09:03:31;100863.09;;;0.98;93.38
72262;BME280;60173;52.112;8.648;2022-12-05T09:08:31;100878.47;;;0.65;93.96
72262;BME280;60173;52.112;8.648;2022-12-05T09:10:58;100873.66;;;0.74;94.62
72262;BME280;60173;52.112;8.648;2022-12-05T09:13:24;100874.25;;;0.95;93.57
72262;BME280;60173;52.112;8.648;2022-12-05T09:15:51;100878.19;;;0.92;93.53
72262;BME280;60173;52.112;8.648;2022-12-05T09:18:17;100868.09;;;0.94;92.96
72262;BME280;60173;52.112;8.648;2022-12-05T09:20:43;100870.41;;;0.90;92.86
72262;BME280;60173;52.112;8.648;2022-12-05T09:23:10;100867.78;;;0.84;93.04
72262;BME280;60173;52.112;8.648;2022-12-05T09:25:41;100869.56;;;0.72;93.76
72262;BME280;60173;52.112;8.648;2022-12-05T09:28:07;100871.13;;;0.79;94.02
72262;BME280;60173;52.112;8.648;2022-12-05T09:30:34;100879.00;;;0.74;93.95
72262;BME280;60173;52.112;8.648;2022-12-05T09:33:00;100881.84;;;0.79;93.98
72262;BME280;60173;52.112;8.648;2022-12-05T09:35:26;100873.28;;;0.71;94.27
72262;BME280;60173;52.112;8.648;2022-12-05T09:37:53;100871.75;;;0.81;94.27
72262;BME280;60173;52.112;8.648;2022-12-05T09:40:19;100874.41;;;0.81;93.98
72262;BME280;60173;52.112;8.648;2022-12-05T09:42:57;100882.00;;;0.84;93.86
72262;BME280;60173;52.112;8.648;2022-12-05T09:45:34;100885.91;;;0.82;94.08
72262;BME280;60173;52.112;8.648;2022-12-05T09:48:12;100881.47;;;0.76;94.20
72262;BME280;60173;52.112;8.648;2022-12-05T09:50:43;100885.97;;;0.75;94.28
72262;BME280;60173;52.112;8.648;2022-12-05T09:58:50;100882.50;;;0.75;94.44
72262;BME280;60173;52.112;8.648;2022-12-05T10:01:26;100876.47;;;0.79;94.26
72262;BME280;60173;52.112;8.648;2022-12-05T10:04:29;100872.84;;;0.74;94.21
72262;BME280;60173;52.112;8.648;2022-12-05T10:09:48;100880.25;;;0.72;94.56
72262;BME280;60173;52.112;8.648;2022-12-05T10:17:37;100879.75;;;0.81;94.90
72262;BME280;60173;52.112;8.648;2022-12-05T10:22:43;100872.31;;;0.83;94.35
72262;BME280;60173;52.112;8.648;2022-12-05T10:25:12;100873.63;;;0.93;94.52
72262;BME280;60173;52.112;8.648;2022-12-05T10:27:44;100870.09;;;0.99;94.53
72262;BME280;60173;52.112;8.648;2022-12-05T10:30:14;100869.66;;;1.02;94.37
72262;BME280;60173;52.112;8.648;2022-12-05T10:35:38;100871.06;;;1.34;93.99
72262;BME280;60173;52.112;8.648;2022-12-05T10:38:21;100870.00;;;1.35;93.58
72262;BME280;60173;52.112;8.648;2022-12-05T10:40:51;100864.13;;;1.45;93.56
72262;BME280;60173;52.112;8.648;2022-12-05T10:43:27;100868.47;;;1.58;92.51
72262;BME280;60173;52.112;8.648;2022-12-05T10:45:54;100866.75;;;1.64;91.58
72262;BME280;60173;52.112;8.648;2022-12-05T10:48:21;100855.25;;;1.75;90.58
72262;BME280;60173;52.112;8.648;2022-12-05T10:50:53;100852.78;;;1.73;90.38
72262;BME280;60173;52.112;8.648;2022-12-05T10:53:23;100858.50;;;1.65;90.53
72262;BME280;60173;52.112;8.648;2022-12-05T10:55:51;100855.25;;;1.75;90.29
72262;BME280;60173;52.112;8.648;2022-12-05T10:58:37;100856.19;;;1.80;90.02
72262;BME280;60173;52.112;8.648;2022-12-05T11:01:09;100854.81;;;1.90;89.71
72262;BME280;60173;52.112;8.648;2022-12-05T11:03:39;100857.03;;;1.93;89.63
72262;BME280;60173;52.112;8.648;2022-12-05T11:06:17;100859.03;;;1.97;89.60
72262;BME280;60173;52.112;8.648;2022-12-05T11:08:53;100860.44;;;2.00;88.91
72262;BME280;60173;52.112;8.648;2022-12-05T11:11:31;100857.72;;;1.88;88.58
72262;BME280;60173;52.112;8.648;2022-12-05T11:14:04;100847.56;;;1.78;89.15
72262;BME280;60173;52.112;8.648;2022-12-05T11:16:31;100855.59;;;1.78;89.40
72262;BME280;60173;52.112;8.648;2022-12-05T11:21:49;100854.16;;;1.64;89.98
72262;BME280;60173;52.112;8.648;2022-12-05T11:24:35;100843.69;;;1.63;90.37
72262;BME280;60173;52.112;8.648;2022-12-05T11:29:42;100846.38;;;1.02;91.89
72262;BME280;60173;52.112;8.648;2022-12-05T11:32:24;100846.63;;;0.64;94.61
72262;BME280;60173;52.112;8.648;2022-12-05T11:37:46;100849.66;;;1.34;93.20
72262;BME280;60173;52.112;8.648;2022-12-05T11:43:30;100844.44;;;1.40;91.23
72262;BME280;60173;52.112;8.648;2022-12-05T11:51:54;100846.34;;;1.51;91.26
72262;BME280;60173;52.112;8.648;2022-12-05T11:54:54;100839.06;;;1.09;91.77
72262;BME280;60173;52.112;8.648;2022-12-05T12:00:04;100836.22;;;1.53;91.01
72262;BME280;60173;52.112;8.648;2022-12-05T12:08:28;100842.16;;;1.55;91.66
72262;BME280;60173;52.112;8.648;2022-12-05T12:14:15;100844.69;;;1.50;91.03
72262;BME280;60173;52.112;8.648;2022-12-05T12:19:42;100837.59;;;1.44;90.85
72262;BME280;60173;52.112;8.648;2022-12-05T12:22:38;100838.19;;;1.46;90.93
72262;BME280;60173;52.112;8.648;2022-12-05T12:31:39;100835.00;;;1.37;91.93
72262;BME280;60173;52.112;8.648;2022-12-05T12:39:49;100831.34;;;1.01;94.12
72262;BME280;60173;52.112;8.648;2022-12-05T12:44:52;100828.41;;;1.51;91.91
72262;BME280;60173;52.112;8.648;2022-12-05T12:52:52;100825.00;;;1.44;91.51
72262;BME280;60173;52.112;8.648;2022-12-05T12:55:35;100827.91;;;1.31;92.00
72262;BME280;60173;52.112;8.648;2022-12-05T13:01:20;100822.72;;;1.18;92.89
72262;BME280;60173;52.112;8.648;2022-12-05T13:06:33;100827.56;;;1.39;92.58
72262;BME280;60173;52.112;8.648;2022-12-05T13:09:17;100824.94;;;0.90;92.70
72262;BME280;60173;52.112;8.648;2022-12-05T13:11:45;100822.50;;;1.19;93.43
72262;BME280;60173;52.112;8.648;2022-12-05T13:14:15;100823.50;;;1.37;92.36
72262;BME280;60173;52.112;8.648;2022-12-05T13:16:47;100821.13;;;1.28;91.97
72262;BME280;60173;52.112;8.648;2022-12-05T13:19:30;100818.47;;;1.28;92.13
72262;BME280;60173;52.112;8.648;2022-12-05T13:21:58;100814.16;;;1.27;92.24
72262;BME280;60173;52.112;8.648;2022-12-05T13:24:26;100816.69;;;1.22;92.56
72262;BME280;60173;52.112;8.648;2022-12-05T13:26:58;100813.41;;;1.20;92.81
72262;BME280;60173;52.112;8.648;2022-12-05T13:29:40;100813.41;;;1.20;92.82
72262;BME280;60173;52.112;8.648;2022-12-05T13:32:30;100817.41;;;1.29;92.43
72262;BME280;60173;52.112;8.648;2022-12-05T13:35:00;100814.03;;;1.22;92.37
72262;BME280;60173;52.112;8.648;2022-12-05T13:37:30;100816.25;;;1.25;92.64
72262;BME280;60173;52.112;8.648;2022-12-05T13:39:57;100827.91;;;1.31;92.56
72262;BME280;60173;52.112;8.648;2022-12-05T13:42:27;100817.19;;;1.31;92.36
72262;BME280;60173;52.112;8.648;2022-12-05T13:45:06;100827.53;;;1.27;92.54
72262;BME280;60173;52.112;8.648;2022-12-05T13:53:22;100833.81;;;1.33;92.59
72262;BME280;60173;52.112;8.648;2022-12-05T13:55:56;100834.81;;;1.20;93.16
72262;BME280;60173;52.112;8.648;2022-12-05T14:00:50;100830.78;;;1.29;92.19
72262;BME280;60173;52.112;8.648;2022-12-05T14:06:05;100827.91;;;1.12;93.08
72262;BME280;60173;52.112;8.648;2022-12-05T14:15:52;100826.00;;;1.20;92.73
72262;BME280;60173;52.112;8.648;2022-12-05T14:21:06;100835.06;;;1.19;93.36
72262;BME280;60173;52.112;8.648;2022-12-05T14:37:29;100829.97;;;0.80;95.52
72262;BME280;60173;52.112;8.648;2022-12-05T14:39:58;100838.69;;;0.76;95.59
72262;BME280;60173;52.112;8.648;2022-12-05T14:42:41;100834.09;;;0.64;95.52
72262;BME280;60173;52.112;8.648;2022-12-05T14:45:37;100842.84;;;0.53;96.06
72262;BME280;60173;52.112;8.648;2022-12-05T14:48:24;100842.91;;;0.65;96.14
72262;BME280;60173;52.112;8.648;2022-12-05T14:50:53;100838.00;;;0.62;96.13
72262;BME280;60173;52.112;8.648;2022-12-05T14:59:04;100842.00;;;0.34;97.13
72262;BME280;60173;52.112;8.648;2022-12-05T15:01:38;100842.00;;;0.34;97.35
72262;BME280;60173;52.112;8.648;2022-12-05T15:06:48;100838.59;;;0.45;96.17
72262;BME280;60173;52.112;8.648;2022-12-05T15:18:17;100841.69;;;0.24;96.72
72262;BME280;60173;52.112;8.648;2022-12-05T15:20:55;100849.34;;;0.39;97.01
72262;BME280;60173;52.112;8.648;2022-12-05T15:31:50;100869.88;;;0.20;97.03
72262;BME280;60173;52.112;8.648;2022-12-05T15:34:41;100877.03;;;0.26;97.26
72262;BME280;60173;52.112;8.648;2022-12-05T15:37:13;100877.88;;;0.20;97.42
72262;BME280;60173;52.112;8.648;2022-12-05T15:39:55;100880.41;;;0.15;97.78
72262;BME280;60173;52.112;8.648;2022-12-05T15:42:31;100869.28;;;0.18;97.94
72262;BME280;60173;52.112;8.648;2022-12-05T15:52:46;100882.03;;;0.16;98.15
72262;BME280;60173;52.112;8.648;2022-12-05T15:55:23;100885.03;;;0.26;98.17
72262;BME280;60173;52.112;8.648;2022-12-05T15:58:00;100881.59;;;0.44;98.07
72262;BME280;60173;52.112;8.648;2022-12-05T16:00:37;100886.25;;;0.49;97.74
72262;BME280;60173;52.112;8.648;2022-12-05T16:03:20;100887.06;;;0.49;97.54
72262;BME280;60173;52.112;8.648;2022-12-05T16:05:59;100878.03;;;0.50;97.68
72262;BME280;60173;52.112;8.648;2022-12-05T16:08:26;100874.69;;;0.55;97.51
72262;BME280;60173;52.112;8.648;2022-12-05T16:10:53;100879.22;;;0.54;97.27